sensor_id;sensor_type;location;lat;lon;timestamp;pressure;altitude;pressure_sealevel;temperature;humidity
17936;BME280;9093;52.062;4.508;2022-12-16T00:00:22;101388.56;;;2.66;78.26
17936;BME280;9093;52.062;4.508;2022-12-16T00:03:05;101384.16;;;2.66;78.36
17936;BME280;9093;52.062;4.508;2022-12-16T00:05:47;101385.03;;;2.67;78.32
17936;BME280;9093;52.062;4.508;2022-12-16T00:08:27;101383.28;;;2.66;78.58
17936;BME280;9093;52.062;4.508;2022-12-16T00:11:08;101382.44;;;2.65;78.69
17936;BME280;9093;52.062;4.508;2022-12-16T00:13:49;101387.75;;;2.64;78.69
17936;BME280;9093;52.062;4.508;2022-12-16T00:16:29;101379.84;;;2.61;78.73
17936;BME280;9093;52.062;4.508;2022-12-16T00:19:10;101393.91;;;2.63;78.47
17936;BME280;9093;52.062;4.508;2022-12-16T00:21:50;101388.63;;;2.64;78.66
17936;BME280;9093;52.062;4.508;2022-12-16T00:24:30;101384.22;;;2.65;78.79
17936;BME280;9093;52.062;4.508;2022-12-16T00:27:11;101385.09;;;2.64;78.47
17936;BME280;9093;52.062;4.508;2022-12-16T00:29:51;101382.47;;;2.62;78.62
17936;BME280;9093;52.062;4.508;2022-12-16T00:32:31;101385.13;;;2.62;78.97
17936;BME280;9093;52.062;4.508;2022-12-16T00:35:12;101392.16;;;2.62;78.46
17936;BME280;9093;52.062;4.508;2022-12-16T00:37:55;101388.66;;;2.60;78.48
17936;BME280;9093;52.062;4.508;2022-12-16T00:40:36;101392.16;;;2.62;78.74
17936;BME280;9093;52.062;4.508;2022-12-16T00:43:16;101406.22;;;2.61;78.79
17936;BME280;9093;52.062;4.508;2022-12-16T00:45:57;101402.69;;;2.60;78.56
17936;BME280;9093;52.062;4.508;2022-12-16T00:48:37;101407.16;;;2.57;78.54
17936;BME280;9093;52.062;4.508;2022-12-16T00:51:17;101420.34;;;2.57;78.59
17936;BME280;9093;52.062;4.508;2022-12-16T00:53:58;101415.94;;;2.57;78.69
17936;BME280;9093;52.062;4.508;2022-12-16T00:56:38;101418.56;;;2.59;78.76
17936;BME280;9093;52.062;4.508;2022-12-16T00:59:18;101415.06;;;2.58;78.51
17936;BME280;9093;52.062;4.508;2022-12-16T01:01:58;101413.28;;;2.59;78.54
17936;BME280;9093;52.062;4.508;2022-12-16T01:04:39;101417.69;;;2.57;78.84
17936;BME280;9093;52.062;4.508;2022-12-16T01:07:19;101410.66;;;2.57;78.85
17936;BME280;9093;52.062;4.508;2022-12-16T01:09:59;101409.78;;;2.58;78.47
17936;BME280;9093;52.062;4.508;2022-12-16T01:12:40;101421.22;;;2.57;78.47
17936;BME280;9093;52.062;4.508;2022-12-16T01:15:21;101423.84;;;2.57;78.73
17936;BME280;9093;52.062;4.508;2022-12-16T01:18:01;101422.09;;;2.55;78.91
17936;BME280;9093;52.062;4.508;2022-12-16T01:20:41;101430.91;;;2.54;78.75
17936;BME280;9093;52.062;4.508;2022-12-16T01:23:22;101432.69;;;2.52;78.81
17936;BME280;9093;52.062;4.508;2022-12-16T01:26:02;101434.47;;;2.50;78.67
17936;BME280;9093;52.062;4.508;2022-12-16T01:28:43;101435.34;;;2.49;78.85
17936;BME280;9093;52.062;4.508;2022-12-16T01:31:23;101439.81;;;2.45;78.57
17936;BME280;9093;52.062;4.508;2022-12-16T01:34:04;101449.47;;;2.45;78.77
17936;BME280;9093;52.062;4.508;2022-12-16T01:36:44;101452.13;;;2.41;78.94
17936;BME280;9093;52.062;4.508;2022-12-16T01:39:25;101458.28;;;2.40;78.89
17936;BME280;9093;52.062;4.508;2022-12-16T01:42:17;101463.59;;;2.37;78.68
17936;BME280;9093;52.062;4.508;2022-12-16T01:45:31;101467.13;;;2.35;79.00
17936;BME280;9093;52.062;4.508;2022-12-16T01:51:28;101482.09;;;2.31;78.62
17936;BME280;9093;52.062;4.508;2022-12-16T01:54:33;101486.50;;;2.29;78.66
17936;BME280;9093;52.062;4.508;2022-12-16T01:57:20;101479.53;;;2.27;78.53
17936;BME280;9093;52.062;4.508;2022-12-16T02:00:04;101489.19;;;2.26;79.00
17936;BME280;9093;52.062;4.508;2022-12-16T02:02:48;101483.91;;;2.26;78.83
17936;BME280;9093;52.062;4.508;2022-12-16T02:05:32;101487.44;;;2.24;78.77
17936;BME280;9093;52.062;4.508;2022-12-16T02:08:15;101490.94;;;2.24;78.81
17936;BME280;9093;52.062;4.508;2022-12-16T02:16:54;101506.81;;;2.18;78.96
17936;BME280;9093;52.062;4.508;2022-12-16T02:32:22;101514.81;;;2.05;78.67
17936;BME280;9093;52.062;4.508;2022-12-16T02:35:38;101512.25;;;2.00;78.86
17936;BME280;9093;52.062;4.508;2022-12-16T02:41:05;101514.00;;;1.98;78.61
17936;BME280;9093;52.062;4.508;2022-12-16T02:43:54;101515.81;;;1.96;78.72
17936;BME280;9093;52.062;4.508;2022-12-16T02:46:41;101520.19;;;1.95;78.89
17936;BME280;9093;52.062;4.508;2022-12-16T02:52:02;101521.94;;;1.93;78.77
17936;BME280;9093;52.062;4.508;2022-12-16T02:54:43;101527.22;;;1.93;78.55
17936;BME280;9093;52.062;4.508;2022-12-16T02:57:51;101527.25;;;1.89;78.62
17936;BME280;9093;52.062;4.508;2022-12-16T03:00:47;101537.78;;;1.87;78.86
17936;BME280;9093;52.062;4.508;2022-12-16T03:04:15;101547.50;;;1.82;78.50
17936;BME280;9093;52.062;4.508;2022-12-16T03:06:32;101541.34;;;1.79;78.68
17936;BME280;9093;52.062;4.508;2022-12-16T03:09:18;101552.81;;;1.76;78.73
17936;BME280;9093;52.062;4.508;2022-12-16T03:12:04;101551.03;;;1.74;78.86
17936;BME280;9093;52.062;4.508;2022-12-16T03:14:49;101553.69;;;1.72;78.83
17936;BME280;9093;52.062;4.508;2022-12-16T03:17:30;101548.41;;;1.72;78.44
17936;BME280;9093;52.062;4.508;2022-12-16T03:20:17;101549.28;;;1.73;78.82
17936;BME280;9093;52.062;4.508;2022-12-16T03:23:00;101556.31;;;1.72;78.73
17936;BME280;9093;52.062;4.508;2022-12-16T03:25:44;101551.09;;;1.71;78.44
17936;BME280;9093;52.062;4.508;2022-12-16T03:28:36;101559.84;;;1.70;78.59
17936;BME280;9093;52.062;4.508;2022-12-16T03:31:40;101558.09;;;1.67;78.64
17936;BME280;9093;52.062;4.508;2022-12-16T03:34:42;101559.88;;;1.67;78.56
17936;BME280;9093;52.062;4.508;2022-12-16T03:37:27;101566.88;;;1.68;78.47
17936;BME280;9093;52.062;4.508;2022-12-16T03:40:11;101564.25;;;1.68;78.58
17936;BME280;9093;52.062;4.508;2022-12-16T03:42:53;101573.91;;;1.66;78.41
17936;BME280;9093;52.062;4.508;2022-12-16T03:45:37;101577.41;;;1.65;78.67
17936;BME280;9093;52.062;4.508;2022-12-16T03:48:25;101584.47;;;1.63;78.41
17936;BME280;9093;52.062;4.508;2022-12-16T03:51:05;101573.06;;;1.62;78.28
17936;BME280;9093;52.062;4.508;2022-12-16T03:53:46;101588.84;;;1.62;78.42
17936;BME280;9093;52.062;4.508;2022-12-16T03:56:26;101581.00;;;1.57;78.53
17936;BME280;9093;52.062;4.508;2022-12-16T03:59:06;101590.63;;;1.57;78.60
17936;BME280;9093;52.062;4.508;2022-12-16T04:01:47;101585.38;;;1.54;78.32
17936;BME280;9093;52.062;4.508;2022-12-16T04:04:27;101589.78;;;1.50;78.46
17936;BME280;9093;52.062;4.508;2022-12-16T04:07:08;101597.69;;;1.49;78.59
17936;BME280;9093;52.062;4.508;2022-12-16T04:10:00;101605.63;;;1.44;78.42
17936;BME280;9093;52.062;4.508;2022-12-16T04:12:41;101602.09;;;1.39;78.55
17936;BME280;9093;52.062;4.508;2022-12-16T04:15:40;101600.38;;;1.35;78.16
17936;BME280;9093;52.062;4.508;2022-12-16T04:18:39;101602.16;;;1.30;78.12
17936;BME280;9093;52.062;4.508;2022-12-16T04:21:39;101604.78;;;1.27;78.33
17936;BME280;9093;52.062;4.508;2022-12-16T04:24:38;101602.16;;;1.23;78.21
17936;BME280;9093;52.062;4.508;2022-12-16T04:27:18;101599.53;;;1.21;78.50
17936;BME280;9093;52.062;4.508;2022-12-16T04:30:05;101603.97;;;1.19;78.21
17936;BME280;9093;52.062;4.508;2022-12-16T04:33:06;101617.09;;;1.16;78.28
17936;BME280;9093;52.062;4.508;2022-12-16T04:36:07;101620.59;;;1.15;78.51
17936;BME280;9093;52.062;4.508;2022-12-16T04:39:06;101626.75;;;1.11;78.40
17936;BME280;9093;52.062;4.508;2022-12-16T04:42:05;101639.91;;;1.08;78.49
17936;BME280;9093;52.062;4.508;2022-12-16T04:45:05;101637.31;;;1.05;78.12
17936;BME280;9093;52.062;4.508;2022-12-16T04:48:04;101637.28;;;1.02;78.17
17936;BME280;9093;52.062;4.508;2022-12-16T04:51:03;101637.31;;;0.99;78.41
17936;BME280;9093;52.062;4.508;2022-12-16T04:54:01;101637.31;;;0.96;78.24
17936;BME280;9093;52.062;4.508;2022-12-16T04:57:00;101637.31;;;0.93;78.34
17936;BME280;9093;52.062;4.508;2022-12-16T04:59:59;101637.31;;;0.90;78.47
17936;BME280;9093;52.062;4.508;2022-12-16T05:02:58;101637.34;;;0.87;78.53
17936;BME280;9093;52.062;4.508;2022-12-16T05:05:57;101638.19;;;0.82;78.36
17936;BME280;9093;52.062;4.508;2022-12-16T05:08:56;101640.84;;;0.79;78.38
17936;BME280;9093;52.062;4.508;2022-12-16T05:11:55;101642.59;;;0.77;78.34
17936;BME280;9093;52.062;4.508;2022-12-16T05:14:54;101641.75;;;0.75;78.75
17936;BME280;9093;52.062;4.508;2022-12-16T05:17:53;101655.75;;;0.74;78.51
17936;BME280;9093;52.062;4.508;2022-12-16T05:20:52;101654.00;;;0.73;78.48
17936;BME280;9093;52.062;4.508;2022-12-16T05:23:51;101673.25;;;0.72;78.21
17936;BME280;9093;52.062;4.508;2022-12-16T05:26:49;101668.00;;;0.72;79.11
17936;BME280;9093;52.062;4.508;2022-12-16T05:29:48;101673.25;;;0.72;78.61
17936;BME280;9093;52.062;4.508;2022-12-16T05:32:48;101670.63;;;0.72;78.59
17936;BME280;9093;52.062;4.508;2022-12-16T05:35:50;101675.91;;;0.72;78.40
17936;BME280;9093;52.062;4.508;2022-12-16T05:38:49;101670.63;;;0.72;78.50
17936;BME280;9093;52.062;4.508;2022-12-16T05:41:48;101682.91;;;0.72;78.50
17936;BME280;9093;52.062;4.508;2022-12-16T05:44:50;101685.53;;;0.73;78.42
17936;BME280;9093;52.062;4.508;2022-12-16T05:47:49;101686.41;;;0.72;78.59
17936;BME280;9093;52.062;4.508;2022-12-16T05:51:02;101687.28;;;0.71;78.27
17936;BME280;9093;52.062;4.508;2022-12-16T05:54:01;101694.28;;;0.71;78.31
17936;BME280;9093;52.062;4.508;2022-12-16T05:57:17;101705.69;;;0.71;78.21
17936;BME280;9093;52.062;4.508;2022-12-16T06:00:16;101698.66;;;0.70;78.16
17936;BME280;9093;52.062;4.508;2022-12-16T06:03:14;101696.03;;;0.70;78.13
17936;BME280;9093;52.062;4.508;2022-12-16T06:06:16;101706.56;;;0.70;78.22
17936;BME280;9093;52.062;4.508;2022-12-16T06:09:15;101701.31;;;0.72;78.34
17936;BME280;9093;52.062;4.508;2022-12-16T06:12:14;101702.19;;;0.72;78.27
17936;BME280;9093;52.062;4.508;2022-12-16T06:15:13;101705.69;;;0.71;78.31
17936;BME280;9093;52.062;4.508;2022-12-16T06:18:12;101711.81;;;0.72;78.27
17936;BME280;9093;52.062;4.508;2022-12-16T06:21:15;101715.31;;;0.72;78.31
17936;BME280;9093;52.062;4.508;2022-12-16T06:24:14;101712.72;;;0.69;78.01
17936;BME280;9093;52.062;4.508;2022-12-16T06:27:13;101717.06;;;0.67;78.02
17936;BME280;9093;52.062;4.508;2022-12-16T06:30:12;101711.81;;;0.64;78.37
17936;BME280;9093;52.062;4.508;2022-12-16T06:33:11;101728.47;;;0.66;78.28
17936;BME280;9093;52.062;4.508;2022-12-16T06:36:10;101725.84;;;0.68;78.00
17936;BME280;9093;52.062;4.508;2022-12-16T06:39:09;101730.19;;;0.70;78.01
17936;BME280;9093;52.062;4.508;2022-12-16T06:42:09;101733.72;;;0.74;78.23
17936;BME280;9093;52.062;4.508;2022-12-16T06:45:08;101738.97;;;0.77;77.99
17936;BME280;9093;52.062;4.508;2022-12-16T06:48:07;101734.59;;;0.77;78.41
17936;BME280;9093;52.062;4.508;2022-12-16T06:51:06;101739.84;;;0.79;78.26
17936;BME280;9093;52.062;4.508;2022-12-16T06:54:05;101751.25;;;0.81;78.40
17936;BME280;9093;52.062;4.508;2022-12-16T06:57:04;101749.50;;;0.82;78.36
17936;BME280;9093;52.062;4.508;2022-12-16T07:00:03;101758.25;;;0.84;78.40
17936;BME280;9093;52.062;4.508;2022-12-16T07:03:03;101766.16;;;0.85;78.12
17936;BME280;9093;52.062;4.508;2022-12-16T07:06:02;101761.78;;;0.87;78.06
17936;BME280;9093;52.062;4.508;2022-12-16T07:09:01;101765.28;;;0.91;78.56
17936;BME280;9093;52.062;4.508;2022-12-16T07:12:00;101767.03;;;0.92;78.26
17936;BME280;9093;52.062;4.508;2022-12-16T07:14:59;101776.69;;;0.93;77.89
17936;BME280;9093;52.062;4.508;2022-12-16T07:17:58;101780.19;;;0.93;78.37
17936;BME280;9093;52.062;4.508;2022-12-16T07:20:57;101779.31;;;0.93;78.48
17936;BME280;9093;52.062;4.508;2022-12-16T07:23:56;101785.44;;;0.92;78.27
17936;BME280;9093;52.062;4.508;2022-12-16T07:26:55;101795.09;;;0.93;78.19
17936;BME280;9093;52.062;4.508;2022-12-16T07:29:54;101801.22;;;0.93;78.39
17936;BME280;9093;52.062;4.508;2022-12-16T07:32:53;101809.13;;;0.95;78.41
17936;BME280;9093;52.062;4.508;2022-12-16T07:35:52;101811.72;;;0.98;78.46
17936;BME280;9093;52.062;4.508;2022-12-16T07:38:51;101817.00;;;0.99;78.38
17936;BME280;9093;52.062;4.508;2022-12-16T07:41:50;101824.91;;;1.01;78.08
17936;BME280;9093;52.062;4.508;2022-12-16T07:44:48;101818.72;;;1.02;78.29
17936;BME280;9093;52.062;4.508;2022-12-16T07:47:49;101828.38;;;1.03;78.50
17936;BME280;9093;52.062;4.508;2022-12-16T07:50:48;101824.88;;;1.04;77.89
17936;BME280;9093;52.062;4.508;2022-12-16T07:53:47;101832.78;;;1.04;78.04
17936;BME280;9093;52.062;4.508;2022-12-16T07:56:46;101833.66;;;1.03;77.83
17936;BME280;9093;52.062;4.508;2022-12-16T07:59:45;101850.31;;;1.03;78.36
17936;BME280;9093;52.062;4.508;2022-12-16T08:02:44;101859.94;;;1.03;78.44
17936;BME280;9093;52.062;4.508;2022-12-16T08:05:42;101857.31;;;1.03;78.22
17936;BME280;9093;52.062;4.508;2022-12-16T08:08:42;101867.84;;;1.04;78.50
17936;BME280;9093;52.062;4.508;2022-12-16T08:11:40;101861.69;;;1.04;78.44
17936;BME280;9093;52.062;4.508;2022-12-16T08:14:40;101870.44;;;1.01;78.08
17936;BME280;9093;52.062;4.508;2022-12-16T08:17:46;101868.72;;;0.99;78.37
17936;BME280;9093;52.062;4.508;2022-12-16T08:20:45;101866.09;;;0.94;78.52
17936;BME280;9093;52.062;4.508;2022-12-16T08:23:44;101863.44;;;0.93;78.32
17936;BME280;9093;52.062;4.508;2022-12-16T08:26:43;101865.19;;;0.91;78.43
17936;BME280;9093;52.062;4.508;2022-12-16T08:29:42;101866.91;;;0.89;78.26
17936;BME280;9093;52.062;4.508;2022-12-16T08:32:41;101875.69;;;0.85;78.70
17936;BME280;9093;52.062;4.508;2022-12-16T08:35:40;101869.56;;;0.81;78.23
17936;BME280;9093;52.062;4.508;2022-12-16T08:38:39;101872.19;;;0.79;78.37
17936;BME280;9093;52.062;4.508;2022-12-16T08:41:38;101868.66;;;0.76;78.39
17936;BME280;9093;52.062;4.508;2022-12-16T08:44:37;101879.19;;;0.74;78.48
17936;BME280;9093;52.062;4.508;2022-12-16T08:47:36;101887.94;;;0.73;78.24
17936;BME280;9093;52.062;4.508;2022-12-16T08:50:35;101887.91;;;0.70;78.08
17936;BME280;9093;52.062;4.508;2022-12-16T08:53:34;101887.03;;;0.68;78.23
17936;BME280;9093;52.062;4.508;2022-12-16T08:56:34;101894.94;;;0.68;78.25
17936;BME280;9093;52.062;4.508;2022-12-16T08:59:33;101895.78;;;0.66;78.21
17936;BME280;9093;52.062;4.508;2022-12-16T09:02:31;101903.69;;;0.67;78.60
17936;BME280;9093;52.062;4.508;2022-12-16T09:05:30;101905.41;;;0.65;78.26
17936;BME280;9093;52.062;4.508;2022-12-16T09:08:30;101904.56;;;0.66;78.20
17936;BME280;9093;52.062;4.508;2022-12-16T09:11:29;101907.19;;;0.66;78.18
17936;BME280;9093;52.062;4.508;2022-12-16T09:14:28;101914.19;;;0.67;78.17
17936;BME280;9093;52.062;4.508;2022-12-16T09:17:27;101911.59;;;0.69;78.22
17936;BME280;9093;52.062;4.508;2022-12-16T09:20:25;101914.19;;;0.67;78.18
17936;BME280;9093;52.062;4.508;2022-12-16T09:23:27;101924.69;;;0.70;78.13
17936;BME280;9093;52.062;4.508;2022-12-16T09:26:28;101930.84;;;0.71;77.89
17936;BME280;9093;52.062;4.508;2022-12-16T09:29:27;101930.00;;;0.73;78.30
17936;BME280;9093;52.062;4.508;2022-12-16T09:32:25;101939.66;;;0.79;78.00
17936;BME280;9093;52.062;4.508;2022-12-16T09:35:25;101948.44;;;0.90;78.01
17936;BME280;9093;52.062;4.508;2022-12-16T09:38:24;101945.00;;;1.00;78.24
17936;BME280;9093;52.062;4.508;2022-12-16T09:41:42;101953.78;;;1.07;77.91
17936;BME280;9093;52.062;4.508;2022-12-16T09:44:53;101952.00;;;1.10;77.72
17936;BME280;9093;52.062;4.508;2022-12-16T09:50:54;101958.16;;;1.17;77.94
17936;BME280;9093;52.062;4.508;2022-12-16T09:53:56;101963.44;;;1.20;77.64
17936;BME280;9093;52.062;4.508;2022-12-16T09:56:56;101965.19;;;1.24;77.76
17936;BME280;9093;52.062;4.508;2022-12-16T10:00:00;101973.09;;;1.29;77.73
17936;BME280;9093;52.062;4.508;2022-12-16T10:03:07;101974.00;;;1.32;77.67
17936;BME280;9093;52.062;4.508;2022-12-16T10:19:05;101991.56;;;1.54;77.93
17936;BME280;9093;52.062;4.508;2022-12-16T10:22:36;102003.84;;;1.58;77.97
17936;BME280;9093;52.062;4.508;2022-12-16T10:25:48;101998.63;;;1.69;77.99
17936;BME280;9093;52.062;4.508;2022-12-16T10:28:52;102002.13;;;1.74;77.74
17936;BME280;9093;52.062;4.508;2022-12-16T10:31:54;102005.66;;;1.81;77.76
17936;BME280;9093;52.062;4.508;2022-12-16T10:34:53;102013.56;;;1.88;77.80
17936;BME280;9093;52.062;4.508;2022-12-16T10:37:52;102010.91;;;1.93;77.83
17936;BME280;9093;52.062;4.508;2022-12-16T10:40:51;102009.16;;;1.98;77.63
17936;BME280;9093;52.062;4.508;2022-12-16T10:43:51;102005.66;;;1.99;77.88
17936;BME280;9093;52.062;4.508;2022-12-16T10:46:51;102003.91;;;2.01;77.91
17936;BME280;9093;52.062;4.508;2022-12-16T10:49:52;102003.03;;;2.02;77.84
17936;BME280;9093;52.062;4.508;2022-12-16T10:52:55;101999.50;;;2.08;77.83
17936;BME280;9093;52.062;4.508;2022-12-16T10:56:31;101998.63;;;2.15;77.75
17936;BME280;9093;52.062;4.508;2022-12-16T10:59:36;102000.38;;;2.20;77.69
17936;BME280;9093;52.062;4.508;2022-12-16T11:02:36;102002.97;;;2.22;77.63
17936;BME280;9093;52.062;4.508;2022-12-16T11:05:35;102003.84;;;2.28;77.50
17936;BME280;9093;52.062;4.508;2022-12-16T11:08:34;102007.38;;;2.30;77.55
17936;BME280;9093;52.062;4.508;2022-12-16T11:11:33;102017.94;;;2.33;77.71
17936;BME280;9093;52.062;4.508;2022-12-16T11:14:32;102020.53;;;2.41;78.00
17936;BME280;9093;52.062;4.508;2022-12-16T11:17:31;102016.16;;;2.45;77.63
17936;BME280;9093;52.062;4.508;2022-12-16T11:20:30;102017.88;;;2.49;77.96
17936;BME280;9093;52.062;4.508;2022-12-16T11:23:29;102017.91;;;2.52;77.87
17936;BME280;9093;52.062;4.508;2022-12-16T11:26:28;102011.72;;;2.54;77.75
17936;BME280;9093;52.062;4.508;2022-12-16T11:29:27;102009.09;;;2.56;77.40
17936;BME280;9093;52.062;4.508;2022-12-16T11:32:50;102017.88;;;2.58;77.72
17936;BME280;9093;52.062;4.508;2022-12-16T11:36:04;102017.84;;;2.61;77.72
17936;BME280;9093;52.062;4.508;2022-12-16T11:39:05;102010.81;;;2.69;77.96
17936;BME280;9093;52.062;4.508;2022-12-16T11:42:08;102013.44;;;2.76;77.58
17936;BME280;9093;52.062;4.508;2022-12-16T11:45:13;102008.16;;;2.78;77.88
17936;BME280;9093;52.062;4.508;2022-12-16T11:48:42;102003.75;;;2.80;77.67
17936;BME280;9093;52.062;4.508;2022-12-16T11:51:40;102006.38;;;2.81;77.88
17936;BME280;9093;52.062;4.508;2022-12-16T11:54:52;102006.38;;;2.83;78.03
17936;BME280;9093;52.062;4.508;2022-12-16T12:01:24;101996.69;;;2.87;77.86
17936;BME280;9093;52.062;4.508;2022-12-16T12:04:24;102002.84;;;2.89;78.13
17936;BME280;9093;52.062;4.508;2022-12-16T12:07:34;102001.09;;;2.89;78.13
17936;BME280;9093;52.062;4.508;2022-12-16T12:10:48;102006.34;;;2.89;78.10
17936;BME280;9093;52.062;4.508;2022-12-16T12:13:56;102009.00;;;2.89;77.94
17936;BME280;9093;52.062;4.508;2022-12-16T12:17:23;102018.63;;;2.93;78.20
17936;BME280;9093;52.062;4.508;2022-12-16T12:23:44;102038.84;;;3.03;77.89
17936;BME280;9093;52.062;4.508;2022-12-16T12:26:59;102030.03;;;3.07;78.11
17936;BME280;9093;52.062;4.508;2022-12-16T12:33:18;102033.50;;;3.12;77.88
17936;BME280;9093;52.062;4.508;2022-12-16T12:36:37;102030.84;;;3.17;78.14
17936;BME280;9093;52.062;4.508;2022-12-16T12:39:45;102033.47;;;3.24;77.92
17936;BME280;9093;52.062;4.508;2022-12-16T12:42:48;102036.09;;;3.28;78.12
17936;BME280;9093;52.062;4.508;2022-12-16T12:46:13;102036.97;;;3.27;78.07
17936;BME280;9093;52.062;4.508;2022-12-16T12:49:17;102039.63;;;3.28;78.03
17936;BME280;9093;52.062;4.508;2022-12-16T12:56:39;102043.13;;;3.27;78.03
17936;BME280;9093;52.062;4.508;2022-12-16T12:59:22;102044.00;;;3.28;78.17
17936;BME280;9093;52.062;4.508;2022-12-16T13:02:24;102055.41;;;3.31;77.90
17936;BME280;9093;52.062;4.508;2022-12-16T13:05:26;102051.91;;;3.32;77.94
17936;BME280;9093;52.062;4.508;2022-12-16T13:11:37;102051.03;;;3.35;78.08
17936;BME280;9093;52.062;4.508;2022-12-16T13:20:57;102054.50;;;3.37;78.16
17936;BME280;9093;52.062;4.508;2022-12-16T13:23:56;102051.00;;;3.36;78.16
17936;BME280;9093;52.062;4.508;2022-12-16T13:26:59;102045.72;;;3.38;78.16
17936;BME280;9093;52.062;4.508;2022-12-16T13:30:03;102051.88;;;3.41;77.95
17936;BME280;9093;52.062;4.508;2022-12-16T13:33:04;102055.41;;;3.36;78.13
17936;BME280;9093;52.062;4.508;2022-12-16T13:36:03;102059.78;;;3.37;78.09
17936;BME280;9093;52.062;4.508;2022-12-16T13:39:22;102065.06;;;3.35;78.20
17936;BME280;9093;52.062;4.508;2022-12-16T13:42:46;102058.03;;;3.36;78.22
17936;BME280;9093;52.062;4.508;2022-12-16T13:55:58;102070.38;;;3.32;78.17
17936;BME280;9093;52.062;4.508;2022-12-16T13:59:10;102073.91;;;3.30;78.07
17936;BME280;9093;52.062;4.508;2022-12-16T14:02:13;102073.06;;;3.26;78.53
17936;BME280;9093;52.062;4.508;2022-12-16T14:05:28;102075.69;;;3.24;78.32
17936;BME280;9093;52.062;4.508;2022-12-16T14:08:32;102085.38;;;3.26;78.46
17936;BME280;9093;52.062;4.508;2022-12-16T14:11:46;102090.66;;;3.26;78.56
17936;BME280;9093;52.062;4.508;2022-12-16T14:14:55;102091.50;;;3.29;78.43
17936;BME280;9093;52.062;4.508;2022-12-16T14:18:03;102089.75;;;3.30;78.21
17936;BME280;9093;52.062;4.508;2022-12-16T14:21:05;102102.06;;;3.29;78.30
17936;BME280;9093;52.062;4.508;2022-12-16T14:24:19;102106.47;;;3.27;78.12
17936;BME280;9093;52.062;4.508;2022-12-16T14:27:20;102112.66;;;3.26;78.35
17936;BME280;9093;52.062;4.508;2022-12-16T14:30:21;102122.31;;;3.22;78.39
17936;BME280;9093;52.062;4.508;2022-12-16T14:33:23;102121.47;;;3.20;78.55
17936;BME280;9093;52.062;4.508;2022-12-16T14:36:27;102132.91;;;3.18;78.45
17936;BME280;9093;52.062;4.508;2022-12-16T14:39:30;102137.31;;;3.14;78.54
17936;BME280;9093;52.062;4.508;2022-12-16T14:42:33;102132.06;;;3.08;78.45
17936;BME280;9093;52.062;4.508;2022-12-16T14:45:37;102138.22;;;3.06;78.24
17936;BME280;9093;52.062;4.508;2022-12-16T14:48:37;102141.72;;;3.05;78.38
17936;BME280;9093;52.062;4.508;2022-12-16T14:51:37;102145.25;;;3.01;78.46
17936;BME280;9093;52.062;4.508;2022-12-16T14:54:42;102152.28;;;2.97;78.39
17936;BME280;9093;52.062;4.508;2022-12-16T14:57:41;102155.81;;;2.92;78.54
17936;BME280;9093;52.062;4.508;2022-12-16T15:00:40;102163.75;;;2.87;78.60
17936;BME280;9093;52.062;4.508;2022-12-16T15:03:59;102163.78;;;2.78;78.62
17936;BME280;9093;52.062;4.508;2022-12-16T15:07:02;102172.56;;;2.75;78.42
17936;BME280;9093;52.062;4.508;2022-12-16T15:10:03;102172.53;;;2.68;78.43
17936;BME280;9093;52.062;4.508;2022-12-16T15:13:02;102174.31;;;2.61;78.78
17936;BME280;9093;52.062;4.508;2022-12-16T15:16:02;102184.84;;;2.57;78.61
17936;BME280;9093;52.062;4.508;2022-12-16T15:19:02;102183.09;;;2.50;78.87
17936;BME280;9093;52.062;4.508;2022-12-16T15:22:02;102191.00;;;2.42;78.91
17936;BME280;9093;52.062;4.508;2022-12-16T15:25:01;102187.47;;;2.35;78.51
17936;BME280;9093;52.062;4.508;2022-12-16T15:28:01;102198.00;;;2.29;78.63
17936;BME280;9093;52.062;4.508;2022-12-16T15:31:11;102205.91;;;2.23;78.82
17936;BME280;9093;52.062;4.508;2022-12-16T15:34:30;102196.22;;;2.13;78.95
17936;BME280;9093;52.062;4.508;2022-12-16T15:37:35;102197.06;;;2.06;78.60
17936;BME280;9093;52.062;4.508;2022-12-16T15:40:38;102198.81;;;2.01;78.76
17936;BME280;9093;52.062;4.508;2022-12-16T15:43:38;102196.16;;;1.95;78.68
17936;BME280;9093;52.062;4.508;2022-12-16T15:46:37;102199.66;;;1.88;78.87
17936;BME280;9093;52.062;4.508;2022-12-16T15:49:38;102211.06;;;1.82;78.55
17936;BME280;9093;52.062;4.508;2022-12-16T15:52:42;102210.16;;;1.76;78.48
17936;BME280;9093;52.062;4.508;2022-12-16T15:55:41;102209.25;;;1.71;78.87
17936;BME280;9093;52.062;4.508;2022-12-16T15:58:40;102214.47;;;1.65;78.68
17936;BME280;9093;52.062;4.508;2022-12-16T16:01:42;102225.88;;;1.60;78.45
17936;BME280;9093;52.062;4.508;2022-12-16T16:04:41;102224.09;;;1.55;78.87
17936;BME280;9093;52.062;4.508;2022-12-16T16:07:42;102233.72;;;1.51;78.52
17936;BME280;9093;52.062;4.508;2022-12-16T16:10:45;102235.44;;;1.46;78.43
17936;BME280;9093;52.062;4.508;2022-12-16T16:13:44;102238.94;;;1.42;78.56
17936;BME280;9093;52.062;4.508;2022-12-16T16:16:43;102238.03;;;1.39;78.54
17936;BME280;9093;52.062;4.508;2022-12-16T16:19:41;102244.16;;;1.36;78.48
17936;BME280;9093;52.062;4.508;2022-12-16T16:22:40;102247.66;;;1.32;78.35
17936;BME280;9093;52.062;4.508;2022-12-16T16:25:39;102251.13;;;1.30;78.38
17936;BME280;9093;52.062;4.508;2022-12-16T16:28:39;102252.88;;;1.26;78.35
17936;BME280;9093;52.062;4.508;2022-12-16T16:31:37;102249.34;;;1.24;78.46
17936;BME280;9093;52.062;4.508;2022-12-16T16:34:36;102252.84;;;1.20;78.53
17936;BME280;9093;52.062;4.508;2022-12-16T16:37:35;102252.78;;;1.17;78.11
17936;BME280;9093;52.062;4.508;2022-12-16T16:40:35;102252.78;;;1.12;78.17
17936;BME280;9093;52.062;4.508;2022-12-16T16:43:35;102260.63;;;1.09;78.41
17936;BME280;9093;52.062;4.508;2022-12-16T16:46:37;102268.50;;;1.06;78.26
17936;BME280;9093;52.062;4.508;2022-12-16T16:49:43;102270.22;;;1.03;78.19
17936;BME280;9093;52.062;4.508;2022-12-16T16:52:43;102274.59;;;1.01;78.27
17936;BME280;9093;52.062;4.508;2022-12-16T16:55:42;102282.44;;;0.98;78.05
17936;BME280;9093;52.062;4.508;2022-12-16T16:58:41;102283.31;;;0.97;77.89
17936;BME280;9093;52.062;4.508;2022-12-16T17:01:40;102282.44;;;0.95;77.84
17936;BME280;9093;52.062;4.508;2022-12-16T17:04:39;102290.28;;;0.92;77.99
17936;BME280;9093;52.062;4.508;2022-12-16T17:07:38;102287.63;;;0.89;78.00